createdAt,value
2022-08-28T00:00:26.536Z,3.42
2022-08-28T00:02:55.497Z,4.10
2022-08-28T00:05:26.117Z,4.93
2022-08-28T00:07:53.386Z,3.45
2022-08-28T00:10:22.732Z,3.67
2022-08-28T00:12:51.972Z,4.65
2022-08-28T00:15:24.651Z,5.75
2022-08-28T00:17:52.162Z,6.97
2022-08-28T00:20:21.193Z,4.28
2022-08-28T00:22:50.231Z,2.28
2022-08-28T00:25:19.809Z,3.60
2022-08-28T00:27:52.947Z,5.70
2022-08-28T00:30:23.706Z,6.05
2022-08-28T00:32:52.934Z,5.43
2022-08-28T00:35:20.906Z,3.45
2022-08-28T00:37:48.291Z,2.90
2022-08-28T00:40:22.109Z,3.20
2022-08-28T00:42:59.170Z,4.03
2022-08-28T00:45:27.111Z,6.63
2022-08-28T00:47:54.315Z,4.32
2022-08-28T00:50:24.678Z,5.65
2022-08-28T00:53:01.681Z,5.25
2022-08-28T00:55:29.698Z,4.10
2022-08-28T00:57:59.606Z,3.58
2022-08-28T01:00:29.515Z,3.13
2022-08-28T01:02:58.377Z,2.55
2022-08-28T01:05:26.661Z,2.42
2022-08-28T01:07:55.831Z,1.90
2022-08-28T01:10:29.418Z,3.63
2022-08-28T01:12:58.287Z,3.88
2022-08-28T01:15:31.285Z,5.72
2022-08-28T01:18:08.445Z,3.42
2022-08-28T01:20:42.664Z,4.10
2022-08-28T01:23:19.802Z,2.30
2022-08-28T01:25:47.403Z,4.57
2022-08-28T01:28:14.883Z,6.05
2022-08-28T01:30:44.963Z,5.50
2022-08-28T01:33:14.615Z,5.05
2022-08-28T01:35:45.068Z,4.22
2022-08-28T01:38:12.504Z,5.60
2022-08-28T01:40:53.901Z,4.85
2022-08-28T01:43:23.805Z,4.22
2022-08-28T01:45:54.767Z,8.85
2022-08-28T01:48:24.484Z,9.52
2022-08-28T01:50:52.559Z,10.30
2022-08-28T01:53:25.049Z,7.97
2022-08-28T01:55:53.923Z,6.40
2022-08-28T01:58:22.695Z,5.60
2022-08-28T02:00:53.753Z,5.43
2022-08-28T02:03:23.534Z,5.80
2022-08-28T02:05:52.101Z,6.22
2022-08-28T02:08:20.375Z,3.40
2022-08-28T02:10:49.211Z,3.75
2022-08-28T02:13:16.738Z,2.72
2022-08-28T02:15:46.057Z,4.22
2022-08-28T02:18:14.680Z,4.88
2022-08-28T02:20:43.108Z,4.60
2022-08-28T02:23:11.285Z,5.50
2022-08-28T02:25:39.559Z,7.15
2022-08-28T02:28:06.938Z,4.78
2022-08-28T02:30:34.662Z,6.75
2022-08-28T02:33:01.885Z,5.47
2022-08-28T02:35:29.100Z,6.13
2022-08-28T02:37:56.456Z,5.75
2022-08-28T02:40:24.813Z,4.28
2022-08-28T02:42:52.627Z,3.70
2022-08-28T02:45:20.591Z,4.85
2022-08-28T02:47:48.437Z,3.90
2022-08-28T02:50:18.658Z,5.32
2022-08-28T02:52:46.571Z,3.75
2022-08-28T02:55:16.405Z,3.47
2022-08-28T02:57:44.277Z,4.30
2022-08-28T03:00:16.459Z,5.93
2022-08-28T03:02:45.670Z,4.13
2022-08-28T03:05:15.219Z,3.40
2022-08-28T03:07:42.961Z,3.70
2022-08-28T03:10:11.259Z,4.30
2022-08-28T03:12:38.769Z,4.03
2022-08-28T03:15:07.902Z,5.22
2022-08-28T03:17:36.985Z,3.92
2022-08-28T03:20:10.080Z,3.90
2022-08-28T03:22:56.370Z,4.82
2022-08-28T03:25:24.904Z,3.97
2022-08-28T03:27:52.365Z,2.42
2022-08-28T03:30:21.408Z,2.78
2022-08-28T03:32:49.332Z,3.25
2022-08-28T03:35:17.177Z,5.00
2022-08-28T03:37:44.551Z,2.85
2022-08-28T03:40:12.367Z,5.47
2022-08-28T03:42:39.977Z,3.35
2022-08-28T03:45:11.051Z,3.47
2022-08-28T03:47:40.066Z,4.10
2022-08-28T03:50:08.860Z,3.80
2022-08-28T03:52:39.618Z,3.95
2022-08-28T03:55:09.089Z,2.95
2022-08-28T03:57:37.125Z,2.20
2022-08-28T04:00:07.595Z,2.83
2022-08-28T04:02:43.447Z,1.98
2022-08-28T04:05:11.323Z,4.88
2022-08-28T04:07:39.554Z,3.42
2022-08-28T04:10:07.921Z,2.58
2022-08-28T04:12:36.175Z,2.55
2022-08-28T04:15:06.359Z,2.40
2022-08-28T04:17:34.192Z,2.70
2022-08-28T04:20:01.365Z,2.25
2022-08-28T04:22:30.488Z,2.53
2022-08-28T04:24:57.783Z,3.53
2022-08-28T04:27:25.089Z,2.65
2022-08-28T04:29:52.280Z,2.05
2022-08-28T04:32:19.707Z,2.35
2022-08-28T04:34:47.053Z,2.25
2022-08-28T04:37:15.252Z,1.45
2022-08-28T04:39:42.484Z,2.13
2022-08-28T04:42:10.080Z,2.80
2022-08-28T04:44:37.538Z,2.05
2022-08-28T04:47:06.304Z,4.22
2022-08-28T04:49:33.710Z,2.25
2022-08-28T04:52:01.200Z,2.40
2022-08-28T04:54:28.493Z,2.78
2022-08-28T04:56:55.840Z,4.00
2022-08-28T04:59:24.106Z,2.80
2022-08-28T05:01:52.049Z,3.53
2022-08-28T05:04:19.947Z,2.13
2022-08-28T05:06:47.649Z,5.07
2022-08-28T05:09:17.143Z,3.58
2022-08-28T05:11:45.099Z,3.22
2022-08-28T05:14:16.308Z,3.58
2022-08-28T05:16:50.419Z,4.15
2022-08-28T05:19:19.529Z,3.08
2022-08-28T05:21:48.126Z,2.85
2022-08-28T05:24:15.599Z,3.42
2022-08-28T05:26:43.031Z,7.00
2022-08-28T05:29:11.317Z,4.20
2022-08-28T05:31:40.804Z,3.53
2022-08-28T05:34:10.534Z,4.28
2022-08-28T05:36:39.271Z,3.65
2022-08-28T05:39:10.238Z,3.58
2022-08-28T05:41:40.212Z,3.35
2022-08-28T05:44:11.007Z,3.50
2022-08-28T05:46:40.678Z,3.63
2022-08-28T05:49:10.173Z,2.97
2022-08-28T05:51:41.035Z,3.40
2022-08-28T05:54:08.770Z,2.55
2022-08-28T05:56:39.741Z,5.15
2022-08-28T05:59:09.445Z,6.43
2022-08-28T06:01:41.184Z,7.45
2022-08-28T06:04:12.544Z,8.05
2022-08-28T06:06:41.439Z,5.95
2022-08-28T06:09:21.813Z,3.38
2022-08-28T06:11:50.546Z,4.88
2022-08-28T06:14:20.676Z,5.03
2022-08-28T06:16:51.106Z,5.82
2022-08-28T06:19:20.187Z,4.45
2022-08-28T06:21:48.336Z,4.38
2022-08-28T06:24:15.678Z,4.53
2022-08-28T06:26:42.920Z,5.43
2022-08-28T06:29:13.349Z,7.65
2022-08-28T06:31:40.993Z,4.43
2022-08-28T06:34:09.471Z,4.50
2022-08-28T06:36:41.841Z,6.40
2022-08-28T06:39:11.899Z,4.93
2022-08-28T06:41:43.110Z,6.07
2022-08-28T06:44:13.971Z,7.85
2022-08-28T06:46:41.843Z,5.88
2022-08-28T06:49:09.368Z,4.90
2022-08-28T06:51:37.107Z,5.13
2022-08-28T06:54:05.149Z,5.93
2022-08-28T06:56:33.141Z,5.22
2022-08-28T06:59:00.708Z,7.68
2022-08-28T07:01:36.474Z,6.05
2022-08-28T07:04:09.131Z,5.55
2022-08-28T07:06:39.010Z,3.67
2022-08-28T07:09:08.598Z,6.18
2022-08-28T07:11:37.426Z,4.68
2022-08-28T07:14:05.347Z,4.97
2022-08-28T07:16:38.294Z,2.60
2022-08-28T07:19:07.398Z,3.67
2022-08-28T07:21:39.118Z,3.92
2022-08-28T07:24:07.912Z,3.58
2022-08-28T07:26:36.598Z,3.58
2022-08-28T07:29:10.122Z,7.25
2022-08-28T07:31:40.956Z,3.60
2022-08-28T07:34:09.918Z,2.53
2022-08-28T07:36:38.069Z,2.45
2022-08-28T07:39:06.887Z,3.70
2022-08-28T07:41:40.312Z,3.55
2022-08-28T07:44:31.084Z,1.52
2022-08-28T07:47:02.364Z,2.88
2022-08-28T07:49:30.427Z,2.63
2022-08-28T07:51:58.374Z,1.88
2022-08-28T07:54:26.613Z,2.22
2022-08-28T07:56:54.011Z,2.83
2022-08-28T07:59:22.042Z,3.40
2022-08-28T08:01:51.582Z,2.22
2022-08-28T08:04:20.682Z,2.78
2022-08-28T08:06:48.784Z,2.17
2022-08-28T08:09:18.161Z,1.88
2022-08-28T08:11:46.848Z,1.70
2022-08-28T08:14:15.517Z,1.73
2022-08-28T08:16:45.297Z,2.03
2022-08-28T08:19:16.757Z,1.70
2022-08-28T08:21:46.604Z,2.35
2022-08-28T08:24:20.691Z,1.55
2022-08-28T08:26:58.843Z,2.13
2022-08-28T08:29:28.794Z,2.00
2022-08-28T08:32:05.636Z,1.63
2022-08-28T08:34:45.948Z,1.00
2022-08-28T08:37:14.308Z,1.15
2022-08-28T08:39:43.013Z,1.80
2022-08-28T08:42:32.231Z,1.27
2022-08-28T08:45:04.223Z,1.30
2022-08-28T08:47:52.518Z,2.10
2022-08-28T08:50:28.590Z,1.00
2022-08-28T08:53:14.614Z,1.25
2022-08-28T08:55:50.890Z,0.98
2022-08-28T08:58:30.473Z,1.42
2022-08-28T09:01:03.563Z,0.80
2022-08-28T09:03:44.031Z,0.70
2022-08-28T09:06:37.871Z,0.88
2022-08-28T09:09:12.740Z,0.70
2022-08-28T09:11:57.089Z,1.75
2022-08-28T09:14:33.852Z,1.00
2022-08-28T09:17:03.069Z,0.80
2022-08-28T09:19:30.737Z,0.80
2022-08-28T09:21:58.097Z,1.30
2022-08-28T09:24:30.657Z,1.13
2022-08-28T09:27:05.494Z,1.02
2022-08-28T09:29:47.396Z,0.85
2022-08-28T09:32:21.524Z,1.10
2022-08-28T09:35:06.541Z,1.00
2022-08-28T09:37:35.684Z,0.75
2022-08-28T09:40:25.183Z,0.70
2022-08-28T09:43:22.085Z,0.95
2022-08-28T09:45:59.223Z,0.80
2022-08-28T09:48:41.474Z,0.70
2022-08-28T09:51:17.081Z,1.00
2022-08-28T09:53:53.725Z,0.70
2022-08-28T09:56:40.684Z,0.60
2022-08-28T09:59:07.887Z,1.10
2022-08-28T10:01:51.053Z,1.10
2022-08-28T10:04:41.680Z,1.00
2022-08-28T10:07:15.504Z,0.60
2022-08-28T10:10:17.229Z,0.80
2022-08-28T10:13:14.224Z,0.50
2022-08-28T10:15:43.490Z,0.90
2022-08-28T10:18:18.794Z,1.08
2022-08-28T10:20:51.926Z,0.93
2022-08-28T10:23:31.808Z,0.65
2022-08-28T10:26:34.850Z,0.90
2022-08-28T10:29:45.357Z,0.57
2022-08-28T10:32:34.632Z,1.52
2022-08-28T10:35:15.875Z,1.02
2022-08-28T10:38:22.699Z,0.90
2022-08-28T10:40:54.586Z,0.60
2022-08-28T10:43:33.871Z,0.60
2022-08-28T10:46:10.577Z,1.15
2022-08-28T10:49:03.183Z,2.28
2022-08-28T10:51:43.654Z,1.05
2022-08-28T10:55:07.072Z,0.73
2022-08-28T10:57:42.887Z,1.08
2022-08-28T11:00:31.597Z,1.05
2022-08-28T11:03:22.205Z,0.60
2022-08-28T11:06:16.335Z,1.98
2022-08-28T11:08:53.131Z,0.45
2022-08-28T11:11:45.126Z,0.60
2022-08-28T11:14:26.696Z,1.38
2022-08-28T11:16:58.827Z,0.80
2022-08-28T11:19:47.060Z,0.47
2022-08-28T11:22:20.332Z,1.08
2022-08-28T11:25:04.352Z,1.10
2022-08-28T11:27:36.848Z,1.45
2022-08-28T11:30:11.180Z,0.60
2022-08-28T11:33:00.741Z,0.90
2022-08-28T11:35:30.806Z,2.75
2022-08-28T11:37:58.809Z,0.85
2022-08-28T11:40:32.461Z,1.02
2022-08-28T11:43:16.541Z,0.65
2022-08-28T11:45:46.815Z,0.75
2022-08-28T11:48:36.687Z,0.68
2022-08-28T11:51:37.538Z,1.13
2022-08-28T11:54:23.335Z,0.50
2022-08-28T11:56:50.540Z,0.50
2022-08-28T11:59:34.923Z,1.25
2022-08-28T12:02:37.130Z,1.38
2022-08-28T12:05:11.306Z,0.90
2022-08-28T12:07:47.133Z,0.60
2022-08-28T12:10:20.882Z,0.75
2022-08-28T12:12:48.290Z,0.52
2022-08-28T12:15:27.853Z,0.88
2022-08-28T12:18:06.219Z,0.50
2022-08-28T12:20:52.247Z,0.95
2022-08-28T12:23:38.241Z,1.02
2022-08-28T12:26:09.641Z,0.80
2022-08-28T12:28:57.146Z,0.70
2022-08-28T12:31:53.851Z,1.65
2022-08-28T12:34:40.986Z,1.25
2022-08-28T12:37:27.161Z,1.02
2022-08-28T12:39:57.049Z,0.60
2022-08-28T12:42:33.400Z,1.00
2022-08-28T12:45:04.223Z,0.80
2022-08-28T12:47:34.085Z,2.05
2022-08-28T12:50:19.633Z,1.15
2022-08-28T12:52:53.084Z,0.50
2022-08-28T12:55:24.501Z,0.80
2022-08-28T12:57:52.651Z,0.70
2022-08-28T13:00:47.193Z,0.77
2022-08-28T13:03:14.610Z,0.70
2022-08-28T13:05:42.547Z,1.10
2022-08-28T13:08:12.012Z,0.57
2022-08-28T13:10:47.402Z,2.92
2022-08-28T13:13:29.859Z,1.15
2022-08-28T13:16:20.199Z,0.70
2022-08-28T13:19:21.127Z,0.60
2022-08-28T13:22:02.029Z,1.00
2022-08-28T13:24:44.717Z,1.02
2022-08-28T13:27:13.250Z,1.08
2022-08-28T13:30:23.333Z,0.68
2022-08-28T13:33:15.483Z,0.60
2022-08-28T13:35:43.150Z,0.50
2022-08-28T13:41:29.936Z,0.73
2022-08-28T13:44:03.193Z,0.82
2022-08-28T13:46:38.688Z,1.00
2022-08-28T13:49:06.197Z,1.58
2022-08-28T13:51:35.134Z,0.93
2022-08-28T13:54:07.053Z,0.80
2022-08-28T13:56:34.408Z,0.93
2022-08-28T13:59:01.725Z,1.10
2022-08-28T14:01:49.183Z,0.60
2022-08-28T14:04:16.555Z,0.80
2022-08-28T14:06:44.507Z,0.93
2022-08-28T14:09:15.283Z,0.75
2022-08-28T14:11:46.607Z,1.10
2022-08-28T14:14:14.457Z,1.35
2022-08-28T14:16:42.404Z,0.70
2022-08-28T14:19:09.696Z,0.98
2022-08-28T14:21:38.626Z,1.15
2022-08-28T14:24:07.067Z,1.02
2022-08-28T14:26:34.906Z,1.00
2022-08-28T14:29:04.809Z,0.80
2022-08-28T14:31:37.146Z,1.20
2022-08-28T14:34:09.043Z,0.70
2022-08-28T14:36:37.568Z,1.40
2022-08-28T14:39:07.434Z,1.75
2022-08-28T14:41:35.664Z,1.42
2022-08-28T14:44:04.500Z,1.35
2022-08-28T14:46:35.946Z,1.10
2022-08-28T14:49:06.720Z,1.02
2022-08-28T14:51:36.548Z,1.50
2022-08-28T14:54:04.990Z,1.40
2022-08-28T14:56:32.741Z,1.58
2022-08-28T15:01:55.867Z,1.23
2022-08-28T15:04:28.582Z,1.17
2022-08-28T15:06:59.771Z,0.85
2022-08-28T15:09:27.946Z,1.20
2022-08-28T15:12:00.712Z,1.33
2022-08-28T15:14:28.096Z,1.60
2022-08-28T15:16:55.599Z,0.80
2022-08-28T15:19:23.499Z,0.77
2022-08-28T15:21:54.857Z,0.60
2022-08-28T15:24:26.446Z,1.17
2022-08-28T15:26:53.986Z,0.80
2022-08-28T15:29:21.418Z,2.47
2022-08-28T15:31:50.320Z,0.77
2022-08-28T15:34:23.632Z,0.77
2022-08-28T15:36:54.720Z,1.17
2022-08-28T15:39:49.270Z,3.63
2022-08-28T15:42:16.780Z,1.05
2022-08-28T15:45:06.232Z,0.75
2022-08-28T15:47:33.968Z,1.55
2022-08-28T15:50:01.565Z,0.60
2022-08-28T15:52:32.292Z,1.25
2022-08-28T15:54:59.462Z,0.80
2022-08-28T15:57:26.812Z,1.42
2022-08-28T15:59:54.585Z,1.33
2022-08-28T16:02:24.062Z,0.60
2022-08-28T16:04:52.355Z,1.15
2022-08-28T16:07:21.104Z,1.23
2022-08-28T16:09:48.760Z,0.77
2022-08-28T16:12:16.586Z,0.85
2022-08-28T16:14:44.298Z,0.75
2022-08-28T16:17:11.775Z,1.38
2022-08-28T16:19:40.071Z,0.93
2022-08-28T16:22:08.165Z,1.13
2022-08-28T16:24:35.380Z,0.98
2022-08-28T16:27:02.857Z,0.82
2022-08-28T16:29:30.179Z,1.58
2022-08-28T16:31:57.486Z,0.90
2022-08-28T16:34:30.791Z,1.95
2022-08-28T16:36:59.446Z,0.82
2022-08-28T16:39:27.629Z,0.90
2022-08-28T16:41:54.943Z,1.23
2022-08-28T16:44:25.515Z,0.77
2022-08-28T16:46:54.045Z,0.95
2022-08-28T16:49:21.901Z,0.80
2022-08-28T16:51:49.401Z,0.65
2022-08-28T16:54:18.422Z,1.25
2022-08-28T16:56:46.724Z,1.05
2022-08-28T16:59:19.211Z,0.88
2022-08-28T17:01:53.040Z,0.73
2022-08-28T17:04:21.759Z,0.50
2022-08-28T17:06:49.760Z,1.17
2022-08-28T17:09:20.995Z,1.10
2022-08-28T17:11:51.781Z,1.58
2022-08-28T17:14:20.966Z,1.15
2022-08-28T17:16:49.619Z,0.98
2022-08-28T17:19:20.071Z,0.80
2022-08-28T17:22:07.085Z,0.98
2022-08-28T17:24:34.357Z,1.25
2022-08-28T17:27:05.456Z,0.95
2022-08-28T17:29:34.836Z,0.70
2022-08-28T17:32:02.623Z,0.80
2022-08-28T17:34:30.565Z,1.73
2022-08-28T17:36:58.074Z,0.80
2022-08-28T17:39:25.721Z,1.42
2022-08-28T17:41:53.122Z,0.70
2022-08-28T17:44:20.482Z,0.60
2022-08-28T17:46:48.326Z,1.08
2022-08-28T17:49:15.798Z,1.00
2022-08-28T17:51:44.462Z,0.60
2022-08-28T17:54:13.396Z,0.63
2022-08-28T17:56:41.421Z,0.95
2022-08-28T17:59:09.524Z,0.65
2022-08-28T18:01:36.874Z,0.85
2022-08-28T18:04:06.570Z,0.75
2022-08-28T18:06:34.117Z,0.70
2022-08-28T18:09:03.844Z,0.60
2022-08-28T18:11:31.226Z,0.70
2022-08-28T18:13:59.941Z,0.90
2022-08-28T18:16:31.402Z,0.50
2022-08-28T18:19:00.646Z,0.60
2022-08-28T18:24:13.395Z,1.77
2022-08-28T18:26:41.986Z,1.17
2022-08-28T18:29:44.268Z,1.30
2022-08-28T18:32:14.892Z,0.80
2022-08-28T18:34:42.218Z,1.20
2022-08-28T18:37:09.871Z,0.63
2022-08-28T18:39:37.995Z,0.73
2022-08-28T18:42:05.942Z,0.70
2022-08-28T18:44:33.454Z,0.90
2022-08-28T18:47:01.509Z,0.55
2022-08-28T18:49:37.636Z,0.70
2022-08-28T18:52:18.985Z,0.70
2022-08-28T18:54:46.353Z,0.60
2022-08-28T18:57:15.353Z,0.95
2022-08-28T18:59:42.694Z,2.25
2022-08-28T19:02:12.293Z,1.23
2022-08-28T19:04:41.593Z,0.70
2022-08-28T19:07:09.541Z,1.23
2022-08-28T19:09:36.981Z,0.60
2022-08-28T19:12:07.361Z,0.95
2022-08-28T19:14:41.049Z,0.60
2022-08-28T19:17:08.303Z,0.82
2022-08-28T19:19:35.522Z,0.82
2022-08-28T19:22:04.427Z,0.50
2022-08-28T19:24:33.834Z,0.75
2022-08-28T19:27:03.703Z,0.77
2022-08-28T19:29:31.151Z,0.80
2022-08-28T19:32:05.203Z,0.60
2022-08-28T19:34:45.302Z,0.65
2022-08-28T19:37:34.096Z,0.70
2022-08-28T19:40:01.608Z,0.65
2022-08-28T19:42:29.547Z,0.70
2022-08-28T19:44:59.750Z,0.95
2022-08-28T19:47:35.493Z,0.63
2022-08-28T19:50:04.776Z,0.77
2022-08-28T19:52:34.013Z,1.20
2022-08-28T19:55:02.238Z,0.88
2022-08-28T19:57:29.549Z,0.75
2022-08-28T19:59:56.907Z,0.50
2022-08-28T20:02:24.136Z,1.58
2022-08-28T20:04:51.498Z,0.70
2022-08-28T20:07:18.950Z,0.50
2022-08-28T20:09:47.281Z,0.60
2022-08-28T20:12:14.939Z,0.45
2022-08-28T20:14:42.735Z,1.02
2022-08-28T20:17:10.053Z,0.60
2022-08-28T20:19:37.463Z,0.45
2022-08-28T20:22:13.332Z,0.50
2022-08-28T20:24:41.239Z,0.57
2022-08-28T20:30:55.474Z,0.88
2022-08-28T20:33:25.040Z,0.70
2022-08-28T20:36:02.669Z,0.50
2022-08-28T20:38:31.444Z,0.82
2022-08-28T20:41:30.081Z,0.60
2022-08-28T20:44:07.954Z,0.70
2022-08-28T20:49:44.892Z,0.73
2022-08-28T20:52:23.575Z,0.60
2022-08-28T20:54:54.688Z,0.75
2022-08-28T20:57:31.816Z,0.50
2022-08-28T21:03:14.876Z,0.50
2022-08-28T21:05:47.199Z,0.80
2022-08-28T21:08:16.891Z,0.68
2022-08-28T21:10:48.643Z,0.80
2022-08-28T21:13:43.241Z,0.50
2022-08-28T21:21:01.649Z,0.40
2022-08-28T21:23:58.342Z,0.70
2022-08-28T21:39:47.498Z,0.73
2022-08-28T21:42:21.036Z,0.60
2022-08-28T21:45:13.691Z,0.57
2022-08-28T21:52:39.758Z,0.50
2022-08-28T21:55:57.231Z,0.43
2022-08-28T21:59:20.196Z,0.63
2022-08-28T22:11:25.119Z,0.57
2022-08-28T22:14:36.628Z,0.38
2022-08-28T22:17:30.776Z,0.80
2022-08-28T22:19:58.029Z,0.93
2022-08-28T22:22:43.685Z,0.57
2022-08-28T22:25:11.004Z,1.08
2022-08-28T22:27:38.225Z,0.50
2022-08-28T22:30:06.291Z,0.55
2022-08-28T22:32:33.698Z,0.60
2022-08-28T22:35:04.046Z,0.68
2022-08-28T22:37:36.162Z,0.68
2022-08-28T22:40:04.742Z,1.10
2022-08-28T22:42:45.083Z,0.52
2022-08-28T22:45:12.659Z,0.50
2022-08-28T22:47:40.017Z,0.60
2022-08-28T22:50:08.639Z,0.60
2022-08-28T22:52:35.884Z,0.50
2022-08-28T22:55:04.179Z,0.63
2022-08-28T22:57:33.982Z,0.40
2022-08-28T23:00:03.584Z,0.50
2022-08-28T23:02:31.027Z,0.80
2022-08-28T23:04:58.171Z,0.32
2022-08-28T23:07:25.448Z,0.40
2022-08-28T23:09:53.293Z,0.50
2022-08-28T23:12:20.501Z,0.40
2022-08-28T23:14:48.798Z,0.43
2022-08-28T23:16:41.710Z,1.05
2022-08-28T23:17:17.361Z,0.60
2022-08-28T23:19:48.297Z,0.57
2022-08-28T23:22:18.271Z,0.60
2022-08-28T23:24:47.042Z,0.70
2022-08-28T23:27:35.290Z,0.40
2022-08-28T23:30:02.124Z,0.50
2022-08-28T23:32:29.402Z,0.40
2022-08-28T23:34:57.723Z,0.63
2022-08-28T23:37:24.999Z,0.50
2022-08-28T23:39:52.199Z,0.50
2022-08-28T23:42:21.840Z,0.40
2022-08-28T23:44:49.141Z,0.47
2022-08-28T23:47:16.598Z,0.57
2022-08-28T23:49:43.889Z,0.40
2022-08-28T23:52:11.297Z,0.40
2022-08-28T23:54:39.834Z,0.60
2022-08-28T23:57:08.614Z,0.40
2022-08-28T23:59:38.230Z,0.40
